sensor_id;sensor_type;location;lat;lon;timestamp;pressure;altitude;pressure_sealevel;temperature;humidity
28921;BME280;16035;53.594;9.952;2023-07-31T00:01:38;100737.47;;;16.57;75.36
28921;BME280;16035;53.594;9.952;2023-07-31T00:03:38;100729.72;;;16.59;75.49
28921;BME280;16035;53.594;9.952;2023-07-31T00:05:39;100730.84;;;16.58;75.43
28921;BME280;16035;53.594;9.952;2023-07-31T00:07:39;100725.69;;;16.57;75.40
28921;BME280;16035;53.594;9.952;2023-07-31T00:09:39;100729.50;;;16.56;75.37
28921;BME280;16035;53.594;9.952;2023-07-31T00:11:39;100719.88;;;16.58;75.76
28921;BME280;16035;53.594;9.952;2023-07-31T00:13:40;100720.69;;;16.59;75.73
28921;BME280;16035;53.594;9.952;2023-07-31T00:15:40;100718.75;;;16.59;75.63
28921;BME280;16035;53.594;9.952;2023-07-31T00:17:40;100720.19;;;16.57;75.72
28921;BME280;16035;53.594;9.952;2023-07-31T00:19:41;100717.44;;;16.57;75.41
28921;BME280;16035;53.594;9.952;2023-07-31T00:21:41;100714.41;;;16.58;75.64
28921;BME280;16035;53.594;9.952;2023-07-31T00:23:41;100719.56;;;16.60;75.42
28921;BME280;16035;53.594;9.952;2023-07-31T00:25:42;100713.59;;;16.58;75.58
28921;BME280;16035;53.594;9.952;2023-07-31T00:27:42;100706.66;;;16.60;75.59
28921;BME280;16035;53.594;9.952;2023-07-31T00:29:44;100705.84;;;16.60;75.70
28921;BME280;16035;53.594;9.952;2023-07-31T00:31:44;100708.31;;;16.61;75.46
28921;BME280;16035;53.594;9.952;2023-07-31T00:33:45;100710.25;;;16.61;75.66
28921;BME280;16035;53.594;9.952;2023-07-31T00:35:45;100708.59;;;16.60;75.64
28921;BME280;16035;53.594;9.952;2023-07-31T00:37:45;100701.16;;;16.60;75.90
28921;BME280;16035;53.594;9.952;2023-07-31T00:39:46;100706.66;;;16.60;75.64
28921;BME280;16035;53.594;9.952;2023-07-31T00:41:46;100697.13;;;16.58;75.56
28921;BME280;16035;53.594;9.952;2023-07-31T00:43:46;100702.59;;;16.58;75.62
28921;BME280;16035;53.594;9.952;2023-07-31T00:45:47;100704.53;;;16.57;75.63
28921;BME280;16035;53.594;9.952;2023-07-31T00:47:47;100701.00;;;16.57;75.68
28921;BME280;16035;53.594;9.952;2023-07-31T00:49:48;100699.34;;;16.56;75.67
28921;BME280;16035;53.594;9.952;2023-07-31T00:51:48;100691.91;;;16.56;75.56
28921;BME280;16035;53.594;9.952;2023-07-31T00:53:49;100696.59;;;16.56;75.70
28921;BME280;16035;53.594;9.952;2023-07-31T00:55:49;100695.28;;;16.53;75.41
28921;BME280;16035;53.594;9.952;2023-07-31T00:57:50;100688.78;;;16.49;75.50
28921;BME280;16035;53.594;9.952;2023-07-31T00:59:51;100695.38;;;16.48;75.58
28921;BME280;16035;53.594;9.952;2023-07-31T01:01:52;100681.94;;;16.47;75.53
28921;BME280;16035;53.594;9.952;2023-07-31T01:03:53;100688.25;;;16.47;75.52
28921;BME280;16035;53.594;9.952;2023-07-31T01:08:15;100689.69;;;16.45;75.61
28921;BME280;16035;53.594;9.952;2023-07-31T01:10:23;100686.94;;;16.45;75.67
28921;BME280;16035;53.594;9.952;2023-07-31T01:12:27;100673.53;;;16.43;75.62
28921;BME280;16035;53.594;9.952;2023-07-31T01:14:28;100678.72;;;16.45;75.85
28921;BME280;16035;53.594;9.952;2023-07-31T01:16:29;100668.53;;;16.45;75.76
28921;BME280;16035;53.594;9.952;2023-07-31T01:18:29;100671.28;;;16.45;75.61
28921;BME280;16035;53.594;9.952;2023-07-31T01:20:30;100674.03;;;16.45;75.60
28921;BME280;16035;53.594;9.952;2023-07-31T01:27:53;100664.47;;;16.42;75.80
28921;BME280;16035;53.594;9.952;2023-07-31T01:30:00;100659.50;;;16.45;75.78
28921;BME280;16035;53.594;9.952;2023-07-31T01:32:04;100654.53;;;16.47;75.70
28921;BME280;16035;53.594;9.952;2023-07-31T01:34:06;100650.97;;;16.46;75.64
28921;BME280;16035;53.594;9.952;2023-07-31T01:36:09;100653.72;;;16.46;75.60
28921;BME280;16035;53.594;9.952;2023-07-31T01:38:10;100650.97;;;16.46;75.33
28921;BME280;16035;53.594;9.952;2023-07-31T01:40:11;100650.97;;;16.46;75.56
28921;BME280;16035;53.594;9.952;2023-07-31T01:42:11;100643.84;;;16.45;75.81
28921;BME280;16035;53.594;9.952;2023-07-31T01:44:11;100640.00;;;16.46;75.56
28921;BME280;16035;53.594;9.952;2023-07-31T01:46:12;100637.25;;;16.46;75.66
28921;BME280;16035;53.594;9.952;2023-07-31T01:48:12;100644.66;;;16.46;75.90
28921;BME280;16035;53.594;9.952;2023-07-31T01:50:12;100636.13;;;16.47;75.96
28921;BME280;16035;53.594;9.952;2023-07-31T01:52:13;100636.13;;;16.47;75.84
28921;BME280;16035;53.594;9.952;2023-07-31T01:54:13;100633.38;;;16.47;75.61
28921;BME280;16035;53.594;9.952;2023-07-31T01:56:13;100626.81;;;16.48;75.71
28921;BME280;16035;53.594;9.952;2023-07-31T01:58:14;100628.44;;;16.49;75.72
28921;BME280;16035;53.594;9.952;2023-07-31T02:00:15;100617.44;;;16.49;75.77
28921;BME280;16035;53.594;9.952;2023-07-31T02:02:16;100619.06;;;16.50;75.62
28921;BME280;16035;53.594;9.952;2023-07-31T02:04:16;100615.22;;;16.51;75.91
28921;BME280;16035;53.594;9.952;2023-07-31T02:06:16;100614.72;;;16.49;75.77
28921;BME280;16035;53.594;9.952;2023-07-31T02:08:17;100615.22;;;16.51;75.79
28921;BME280;16035;53.594;9.952;2023-07-31T02:10:17;100617.94;;;16.51;76.12
28921;BME280;16035;53.594;9.952;2023-07-31T02:12:17;100619.88;;;16.51;75.79
28921;BME280;16035;53.594;9.952;2023-07-31T02:14:18;100616.84;;;16.52;76.00
28921;BME280;16035;53.594;9.952;2023-07-31T02:16:18;100613.81;;;16.54;75.95
28921;BME280;16035;53.594;9.952;2023-07-31T02:18:18;100614.28;;;16.56;75.94
28921;BME280;16035;53.594;9.952;2023-07-31T02:20:19;100618.69;;;16.57;75.96
28921;BME280;16035;53.594;9.952;2023-07-31T02:22:19;100612.88;;;16.58;76.11
28921;BME280;16035;53.594;9.952;2023-07-31T02:24:20;100602.72;;;16.59;75.93
28921;BME280;16035;53.594;9.952;2023-07-31T02:26:20;100604.34;;;16.60;76.06
28921;BME280;16035;53.594;9.952;2023-07-31T02:28:20;100611.47;;;16.61;76.21
28921;BME280;16035;53.594;9.952;2023-07-31T02:30:21;100597.44;;;16.62;75.95
28921;BME280;16035;53.594;9.952;2023-07-31T02:32:21;100596.31;;;16.63;76.10
28921;BME280;16035;53.594;9.952;2023-07-31T02:34:21;100596.31;;;16.63;76.24
28921;BME280;16035;53.594;9.952;2023-07-31T02:36:22;100600.69;;;16.64;76.24
28921;BME280;16035;53.594;9.952;2023-07-31T02:38:22;100598.47;;;16.66;76.22
28921;BME280;16035;53.594;9.952;2023-07-31T02:40:22;100601.22;;;16.66;76.24
28921;BME280;16035;53.594;9.952;2023-07-31T02:42:23;100594.09;;;16.65;76.30
28921;BME280;16035;53.594;9.952;2023-07-31T02:44:24;100595.72;;;16.66;76.13
28921;BME280;16035;53.594;9.952;2023-07-31T02:46:24;100593.78;;;16.67;76.24
28921;BME280;16035;53.594;9.952;2023-07-31T02:48:25;100592.16;;;16.66;76.31
28921;BME280;16035;53.594;9.952;2023-07-31T02:50:25;100587.50;;;16.66;76.43
28921;BME280;16035;53.594;9.952;2023-07-31T02:52:26;100586.97;;;16.64;76.11
28921;BME280;16035;53.594;9.952;2023-07-31T02:54:26;100582.59;;;16.63;76.19
28921;BME280;16035;53.594;9.952;2023-07-31T02:56:26;100576.81;;;16.65;76.35
28921;BME280;16035;53.594;9.952;2023-07-31T02:58:26;100574.91;;;16.65;76.25
28921;BME280;16035;53.594;9.952;2023-07-31T03:00:27;100578.72;;;16.64;76.58
28921;BME280;16035;53.594;9.952;2023-07-31T03:02:28;100572.75;;;16.62;76.28
28921;BME280;16035;53.594;9.952;2023-07-31T03:04:28;100578.25;;;16.62;76.39
28921;BME280;16035;53.594;9.952;2023-07-31T03:06:28;100580.19;;;16.62;76.33
28921;BME280;16035;53.594;9.952;2023-07-31T03:08:29;100580.97;;;16.62;76.35
28921;BME280;16035;53.594;9.952;2023-07-31T03:10:29;100577.72;;;16.60;76.42
28921;BME280;16035;53.594;9.952;2023-07-31T03:12:29;100577.72;;;16.60;76.41
28921;BME280;16035;53.594;9.952;2023-07-31T03:14:30;100572.22;;;16.60;76.38
28921;BME280;16035;53.594;9.952;2023-07-31T03:16:30;100571.13;;;16.61;76.45
28921;BME280;16035;53.594;9.952;2023-07-31T03:18:30;100568.41;;;16.61;76.56
28921;BME280;16035;53.594;9.952;2023-07-31T03:20:30;100557.09;;;16.63;76.51
28921;BME280;16035;53.594;9.952;2023-07-31T03:22:31;100555.16;;;16.63;76.54
28921;BME280;16035;53.594;9.952;2023-07-31T03:24:31;100561.66;;;16.67;76.63
28921;BME280;16035;53.594;9.952;2023-07-31T03:26:32;100556.50;;;16.66;76.46
28921;BME280;16035;53.594;9.952;2023-07-31T03:28:32;100553.44;;;16.67;76.71
28921;BME280;16035;53.594;9.952;2023-07-31T03:30:35;100555.88;;;16.69;76.63
28921;BME280;16035;53.594;9.952;2023-07-31T03:32:37;100555.06;;;16.68;76.46
28921;BME280;16035;53.594;9.952;2023-07-31T03:34:37;100553.94;;;16.69;76.56
28921;BME280;16035;53.594;9.952;2023-07-31T03:36:37;100553.94;;;16.69;76.58
28921;BME280;16035;53.594;9.952;2023-07-31T03:38:38;100550.09;;;16.71;76.53
28921;BME280;16035;53.594;9.952;2023-07-31T03:40:38;100553.13;;;16.69;76.61
28921;BME280;16035;53.594;9.952;2023-07-31T03:42:39;100553.44;;;16.67;76.64
28921;BME280;16035;53.594;9.952;2023-07-31T03:44:39;100553.94;;;16.69;76.86
28921;BME280;16035;53.594;9.952;2023-07-31T03:46:39;100553.03;;;16.74;76.75
28921;BME280;16035;53.594;9.952;2023-07-31T03:48:40;100551.63;;;16.77;76.68
28921;BME280;16035;53.594;9.952;2023-07-31T03:50:40;100548.06;;;16.76;76.77
28921;BME280;16035;53.594;9.952;2023-07-31T03:52:41;100550.22;;;16.79;77.13
28921;BME280;16035;53.594;9.952;2023-07-31T03:54:42;100552.66;;;16.81;76.82
28921;BME280;16035;53.594;9.952;2023-07-31T03:56:44;100551.03;;;16.80;76.63
28921;BME280;16035;53.594;9.952;2023-07-31T03:58:44;100559.53;;;16.78;76.74
28921;BME280;16035;53.594;9.952;2023-07-31T04:00:45;100562.00;;;16.80;76.84
28921;BME280;16035;53.594;9.952;2023-07-31T04:02:45;100550.22;;;16.79;76.71
28921;BME280;16035;53.594;9.952;2023-07-31T04:04:46;100556.50;;;16.80;76.84
28921;BME280;16035;53.594;9.952;2023-07-31T04:06:46;100553.44;;;16.81;76.89
28921;BME280;16035;53.594;9.952;2023-07-31T04:08:46;100556.50;;;16.80;76.85
28921;BME280;16035;53.594;9.952;2023-07-31T04:10:47;100556.19;;;16.81;76.98
28921;BME280;16035;53.594;9.952;2023-07-31T04:12:47;100545.53;;;16.80;76.65
28921;BME280;16035;53.594;9.952;2023-07-31T04:14:47;100541.97;;;16.79;76.69
28921;BME280;16035;53.594;9.952;2023-07-31T04:16:48;100543.91;;;16.79;76.84
28921;BME280;16035;53.594;9.952;2023-07-31T04:18:49;100547.97;;;16.81;76.91
28921;BME280;16035;53.594;9.952;2023-07-31T04:20:49;100545.53;;;16.80;76.84
28921;BME280;16035;53.594;9.952;2023-07-31T04:22:50;100542.16;;;16.83;76.95
28921;BME280;16035;53.594;9.952;2023-07-31T04:24:50;100535.06;;;16.82;76.91
28921;BME280;16035;53.594;9.952;2023-07-31T04:26:51;100535.38;;;16.80;77.01
28921;BME280;16035;53.594;9.952;2023-07-31T04:28:52;100535.84;;;16.82;76.88
28921;BME280;16035;53.594;9.952;2023-07-31T04:30:52;100533.94;;;16.83;76.96
28921;BME280;16035;53.594;9.952;2023-07-31T04:32:53;100533.94;;;16.83;76.93
28921;BME280;16035;53.594;9.952;2023-07-31T04:34:53;100526.81;;;16.82;77.07
28921;BME280;16035;53.594;9.952;2023-07-31T04:36:54;100525.69;;;16.83;77.16
28921;BME280;16035;53.594;9.952;2023-07-31T04:38:54;100524.59;;;16.84;77.19
28921;BME280;16035;53.594;9.952;2023-07-31T04:40:54;100522.94;;;16.83;77.23
28921;BME280;16035;53.594;9.952;2023-07-31T04:42:55;100529.56;;;16.82;77.15
28921;BME280;16035;53.594;9.952;2023-07-31T04:44:55;100530.38;;;16.82;77.26
28921;BME280;16035;53.594;9.952;2023-07-31T04:46:55;100535.56;;;16.84;77.24
28921;BME280;16035;53.594;9.952;2023-07-31T04:48:56;100516.66;;;16.82;77.30
28921;BME280;16035;53.594;9.952;2023-07-31T04:50:57;100527.34;;;16.84;77.55
28921;BME280;16035;53.594;9.952;2023-07-31T04:52:57;100518.31;;;16.83;77.41
28921;BME280;16035;53.594;9.952;2023-07-31T04:54:58;100520.72;;;16.85;77.14
28921;BME280;16035;53.594;9.952;2023-07-31T04:56:58;100532.19;;;16.87;77.41
28921;BME280;16035;53.594;9.952;2023-07-31T04:58:59;100530.78;;;16.89;77.50
28921;BME280;16035;53.594;9.952;2023-07-31T05:00:59;100536.75;;;16.91;77.50
28921;BME280;16035;53.594;9.952;2023-07-31T05:02:59;100532.06;;;16.92;77.42
28921;BME280;16035;53.594;9.952;2023-07-31T05:05:00;100530.47;;;16.91;77.43
28921;BME280;16035;53.594;9.952;2023-07-31T05:07:00;100533.19;;;16.91;77.60
28921;BME280;16035;53.594;9.952;2023-07-31T05:09:00;100523.84;;;16.92;77.48
28921;BME280;16035;53.594;9.952;2023-07-31T05:11:01;100528.03;;;16.89;77.40
28921;BME280;16035;53.594;9.952;2023-07-31T05:13:02;100526.41;;;16.88;77.63
28921;BME280;16035;53.594;9.952;2023-07-31T05:15:03;100520.13;;;16.88;77.71
28921;BME280;16035;53.594;9.952;2023-07-31T05:17:03;100527.50;;;16.87;77.47
28921;BME280;16035;53.594;9.952;2023-07-31T05:19:04;100531.59;;;16.90;77.60
28921;BME280;16035;53.594;9.952;2023-07-31T05:21:04;100525.28;;;16.89;77.65
28921;BME280;16035;53.594;9.952;2023-07-31T05:23:05;100521.72;;;16.89;77.71
28921;BME280;16035;53.594;9.952;2023-07-31T05:25:05;100514.63;;;16.88;77.58
28921;BME280;16035;53.594;9.952;2023-07-31T05:27:06;100520.91;;;16.88;77.71
28921;BME280;16035;53.594;9.952;2023-07-31T05:29:06;100513.63;;;16.84;77.70
28921;BME280;16035;53.594;9.952;2023-07-31T05:31:06;100510.88;;;16.84;77.82
28921;BME280;16035;53.594;9.952;2023-07-31T05:33:07;100524.59;;;16.84;77.70
28921;BME280;16035;53.594;9.952;2023-07-31T05:35:07;100511.16;;;16.82;77.76
28921;BME280;16035;53.594;9.952;2023-07-31T05:37:10;100514.22;;;16.81;77.80
28921;BME280;16035;53.594;9.952;2023-07-31T05:39:10;100504.88;;;16.82;77.98
28921;BME280;16035;53.594;9.952;2023-07-31T05:41:11;100500.69;;;16.84;77.85
28921;BME280;16035;53.594;9.952;2023-07-31T05:43:12;100507.50;;;16.87;77.84
28921;BME280;16035;53.594;9.952;2023-07-31T05:45:12;100503.94;;;16.86;77.85
28921;BME280;16035;53.594;9.952;2023-07-31T05:47:13;100491.66;;;16.84;77.85
28921;BME280;16035;53.594;9.952;2023-07-31T05:49:14;100494.41;;;16.84;77.88
28921;BME280;16035;53.594;9.952;2023-07-31T05:51:14;100487.47;;;16.86;78.23
28921;BME280;16035;53.594;9.952;2023-07-31T05:53:14;100488.78;;;16.89;78.19
28921;BME280;16035;53.594;9.952;2023-07-31T05:55:15;100492.03;;;16.91;77.98
28921;BME280;16035;53.594;9.952;2023-07-31T05:57:16;100483.50;;;16.92;78.10
28921;BME280;16035;53.594;9.952;2023-07-31T05:59:16;100491.09;;;16.96;77.86
28921;BME280;16035;53.594;9.952;2023-07-31T06:01:17;100490.00;;;16.97;78.04
28921;BME280;16035;53.594;9.952;2023-07-31T06:03:17;100488.56;;;16.99;78.25
28921;BME280;16035;53.594;9.952;2023-07-31T06:05:18;100489.88;;;17.02;78.10
28921;BME280;16035;53.594;9.952;2023-07-31T06:07:18;100485.69;;;17.04;78.42
28921;BME280;16035;53.594;9.952;2023-07-31T06:09:19;100480.38;;;17.08;78.09
28921;BME280;16035;53.594;9.952;2023-07-31T06:11:20;100476.84;;;17.07;78.21
28921;BME280;16035;53.594;9.952;2023-07-31T06:13:21;100477.66;;;17.08;78.19
28921;BME280;16035;53.594;9.952;2023-07-31T06:15:21;100478.66;;;17.12;78.26
28921;BME280;16035;53.594;9.952;2023-07-31T06:17:22;100482.19;;;17.12;78.11
28921;BME280;16035;53.594;9.952;2023-07-31T06:19:22;100486.06;;;17.11;77.85
28921;BME280;16035;53.594;9.952;2023-07-31T06:21:23;100482.81;;;17.09;78.19
28921;BME280;16035;53.594;9.952;2023-07-31T06:23:23;100479.59;;;17.07;78.18
28921;BME280;16035;53.594;9.952;2023-07-31T06:25:23;100486.19;;;17.06;78.17
28921;BME280;16035;53.594;9.952;2023-07-31T06:27:24;100483.47;;;17.06;78.33
28921;BME280;16035;53.594;9.952;2023-07-31T06:29:24;100487.50;;;17.09;78.38
28921;BME280;16035;53.594;9.952;2023-07-31T06:31:24;100482.81;;;17.09;78.31
28921;BME280;16035;53.594;9.952;2023-07-31T06:33:25;100488.31;;;17.09;78.13
28921;BME280;16035;53.594;9.952;2023-07-31T06:35:25;100479.06;;;17.05;78.43
28921;BME280;16035;53.594;9.952;2023-07-31T06:37:26;100489.75;;;17.07;78.35
28921;BME280;16035;53.594;9.952;2023-07-31T06:39:26;100489.44;;;17.08;78.51
28921;BME280;16035;53.594;9.952;2023-07-31T06:41:26;100489.13;;;17.10;78.39
28921;BME280;16035;53.594;9.952;2023-07-31T06:43:26;100485.28;;;17.11;78.52
28921;BME280;16035;53.594;9.952;2023-07-31T06:45:27;100482.19;;;17.12;78.55
28921;BME280;16035;53.594;9.952;2023-07-31T06:47:27;100488.50;;;17.13;78.46
28921;BME280;16035;53.594;9.952;2023-07-31T06:49:27;100482.19;;;17.12;78.30
28921;BME280;16035;53.594;9.952;2023-07-31T06:51:28;100483.81;;;17.13;78.46
28921;BME280;16035;53.594;9.952;2023-07-31T06:53:28;100487.38;;;17.14;78.59
28921;BME280;16035;53.594;9.952;2023-07-31T06:55:28;100485.47;;;17.14;78.61
28921;BME280;16035;53.594;9.952;2023-07-31T06:57:29;100492.56;;;17.15;78.59
28921;BME280;16035;53.594;9.952;2023-07-31T06:59:29;100490.63;;;17.16;78.96
28921;BME280;16035;53.594;9.952;2023-07-31T07:01:30;100484.34;;;17.15;78.85
28921;BME280;16035;53.594;9.952;2023-07-31T07:03:30;100489.19;;;17.18;78.85
28921;BME280;16035;53.594;9.952;2023-07-31T07:05:30;100485.22;;;17.25;78.92
28921;BME280;16035;53.594;9.952;2023-07-31T07:07:31;100486.03;;;17.25;78.84
28921;BME280;16035;53.594;9.952;2023-07-31T07:09:31;100492.81;;;17.28;78.70
28921;BME280;16035;53.594;9.952;2023-07-31T07:11:31;100481.34;;;17.26;78.73
28921;BME280;16035;53.594;9.952;2023-07-31T07:13:32;100487.31;;;17.28;78.71
28921;BME280;16035;53.594;9.952;2023-07-31T07:15:32;100479.06;;;17.28;78.61
28921;BME280;16035;53.594;9.952;2023-07-31T07:17:32;100486.69;;;17.31;79.36
28921;BME280;16035;53.594;9.952;2023-07-31T07:19:33;100480.06;;;17.32;78.97
28921;BME280;16035;53.594;9.952;2023-07-31T07:21:33;100485.56;;;17.32;78.99
28921;BME280;16035;53.594;9.952;2023-07-31T07:23:33;100480.59;;;17.34;78.96
28921;BME280;16035;53.594;9.952;2023-07-31T07:25:37;100477.34;;;17.32;78.80
28921;BME280;16035;53.594;9.952;2023-07-31T07:27:38;100480.06;;;17.32;79.08
28921;BME280;16035;53.594;9.952;2023-07-31T07:29:38;100472.69;;;17.32;79.05
28921;BME280;16035;53.594;9.952;2023-07-31T07:31:39;100474.59;;;17.32;79.17
28921;BME280;16035;53.594;9.952;2023-07-31T07:33:39;100474.28;;;17.33;79.13
28921;BME280;16035;53.594;9.952;2023-07-31T07:35:39;100474.59;;;17.32;79.13
28921;BME280;16035;53.594;9.952;2023-07-31T07:37:40;100474.59;;;17.32;79.31
28921;BME280;16035;53.594;9.952;2023-07-31T07:39:41;100470.75;;;17.33;79.15
28921;BME280;16035;53.594;9.952;2023-07-31T07:41:41;100468.47;;;17.35;78.99
28921;BME280;16035;53.594;9.952;2023-07-31T07:43:41;100474.34;;;17.42;79.27
28921;BME280;16035;53.594;9.952;2023-07-31T07:45:42;100474.03;;;17.43;79.17
28921;BME280;16035;53.594;9.952;2023-07-31T07:47:42;100464.66;;;17.44;79.06
28921;BME280;16035;53.594;9.952;2023-07-31T07:49:42;100482.47;;;17.47;79.01
28921;BME280;16035;53.594;9.952;2023-07-31T07:51:43;100462.41;;;17.47;79.21
28921;BME280;16035;53.594;9.952;2023-07-31T07:53:43;100456.94;;;17.47;79.17
28921;BME280;16035;53.594;9.952;2023-07-31T07:55:43;100462.09;;;17.48;79.54
28921;BME280;16035;53.594;9.952;2023-07-31T07:57:44;100453.72;;;17.53;79.42
28921;BME280;16035;53.594;9.952;2023-07-31T07:59:45;100461.03;;;17.58;79.54
28921;BME280;16035;53.594;9.952;2023-07-31T08:01:45;100458.78;;;17.60;79.49
28921;BME280;16035;53.594;9.952;2023-07-31T08:03:47;100457.31;;;17.62;79.45
28921;BME280;16035;53.594;9.952;2023-07-31T08:05:48;100457.50;;;17.66;79.44
28921;BME280;16035;53.594;9.952;2023-07-31T08:07:48;100451.41;;;17.69;79.34
28921;BME280;16035;53.594;9.952;2023-07-31T08:09:48;100445.78;;;17.74;79.37
28921;BME280;16035;53.594;9.952;2023-07-31T08:11:48;100454.38;;;17.81;79.54
28921;BME280;16035;53.594;9.952;2023-07-31T08:13:49;100463.59;;;17.85;79.50
28921;BME280;16035;53.594;9.952;2023-07-31T08:15:50;100461.50;;;17.82;79.14
28921;BME280;16035;53.594;9.952;2023-07-31T08:17:50;100459.06;;;17.81;79.27
28921;BME280;16035;53.594;9.952;2023-07-31T08:19:50;100449.72;;;17.82;79.46
28921;BME280;16035;53.594;9.952;2023-07-31T08:21:50;100435.63;;;17.83;79.64
28921;BME280;16035;53.594;9.952;2023-07-31T08:23:51;100435.00;;;17.86;79.70
28921;BME280;16035;53.594;9.952;2023-07-31T08:25:51;100432.94;;;17.92;79.60
28921;BME280;16035;53.594;9.952;2023-07-31T08:27:51;100426.31;;;18.02;79.70
28921;BME280;16035;53.594;9.952;2023-07-31T08:29:52;100423.59;;;18.10;79.68
28921;BME280;16035;53.594;9.952;2023-07-31T08:31:53;100423.78;;;18.14;79.42
28921;BME280;16035;53.594;9.952;2023-07-31T08:33:53;100410.50;;;18.16;79.31
28921;BME280;16035;53.594;9.952;2023-07-31T08:35:53;100415.19;;;18.15;79.24
28921;BME280;16035;53.594;9.952;2023-07-31T08:37:54;100415.03;;;18.12;79.28
28921;BME280;16035;53.594;9.952;2023-07-31T08:39:54;100412.28;;;18.12;79.36
28921;BME280;16035;53.594;9.952;2023-07-31T08:41:58;100413.41;;;18.11;79.39
28921;BME280;16035;53.594;9.952;2023-07-31T08:44:00;100415.19;;;18.15;79.75
28921;BME280;16035;53.594;9.952;2023-07-31T08:46:01;100412.81;;;18.23;79.60
28921;BME280;16035;53.594;9.952;2023-07-31T08:48:02;100410.38;;;18.30;79.55
28921;BME280;16035;53.594;9.952;2023-07-31T08:50:03;100406.38;;;18.36;79.49
28921;BME280;16035;53.594;9.952;2023-07-31T08:52:05;100412.34;;;18.38;79.33
28921;BME280;16035;53.594;9.952;2023-07-31T08:54:05;100412.34;;;18.38;79.41
28921;BME280;16035;53.594;9.952;2023-07-31T08:56:06;100412.34;;;18.38;79.50
28921;BME280;16035;53.594;9.952;2023-07-31T08:58:06;100409.59;;;18.38;79.24
28921;BME280;16035;53.594;9.952;2023-07-31T09:00:08;100406.84;;;18.38;79.38
28921;BME280;16035;53.594;9.952;2023-07-31T09:02:09;100406.19;;;18.41;79.55
28921;BME280;16035;53.594;9.952;2023-07-31T09:04:11;100405.69;;;18.39;79.28
28921;BME280;16035;53.594;9.952;2023-07-31T09:06:13;100402.47;;;18.37;79.13
28921;BME280;16035;53.594;9.952;2023-07-31T09:08:19;100412.97;;;18.35;79.27
28921;BME280;16035;53.594;9.952;2023-07-31T09:10:20;100410.88;;;18.32;79.34
28921;BME280;16035;53.594;9.952;2023-07-31T09:12:20;100415.41;;;18.28;79.44
28921;BME280;16035;53.594;9.952;2023-07-31T09:14:21;100410.88;;;18.23;79.25
28921;BME280;16035;53.594;9.952;2023-07-31T09:16:27;100413.94;;;18.22;79.22
28921;BME280;16035;53.594;9.952;2023-07-31T09:18:30;100411.50;;;18.20;79.03
28921;BME280;16035;53.594;9.952;2023-07-31T09:20:31;100410.50;;;18.16;78.95
28921;BME280;16035;53.594;9.952;2023-07-31T09:22:34;100405.78;;;18.08;78.66
28921;BME280;16035;53.594;9.952;2023-07-31T09:24:35;100390.75;;;18.05;78.89
28921;BME280;16035;53.594;9.952;2023-07-31T09:26:36;100394.31;;;18.06;79.26
28921;BME280;16035;53.594;9.952;2023-07-31T09:28:37;100396.44;;;18.09;79.32
28921;BME280;16035;53.594;9.952;2023-07-31T09:30:48;100389.47;;;18.11;79.39
28921;BME280;16035;53.594;9.952;2023-07-31T09:32:50;100381.41;;;18.15;79.29
28921;BME280;16035;53.594;9.952;2023-07-31T09:34:50;100375.91;;;18.15;79.35
28921;BME280;16035;53.594;9.952;2023-07-31T09:36:50;100376.53;;;18.21;79.18
28921;BME280;16035;53.594;9.952;2023-07-31T09:38:53;100374.16;;;18.28;79.14
28921;BME280;16035;53.594;9.952;2023-07-31T09:40:53;100378.19;;;18.30;79.22
28921;BME280;16035;53.594;9.952;2023-07-31T09:42:57;100368.97;;;18.35;79.48
28921;BME280;16035;53.594;9.952;2023-07-31T09:45:08;100373.19;;;18.41;79.45
28921;BME280;16035;53.594;9.952;2023-07-31T09:47:24;100364.44;;;18.48;79.49
28921;BME280;16035;53.594;9.952;2023-07-31T09:49:25;100358.47;;;18.54;79.23
28921;BME280;16035;53.594;9.952;2023-07-31T09:51:28;100359.75;;;18.57;79.41
28921;BME280;16035;53.594;9.952;2023-07-31T09:53:29;100359.75;;;18.57;79.28
28921;BME280;16035;53.594;9.952;2023-07-31T09:55:30;100354.91;;;18.54;79.07
28921;BME280;16035;53.594;9.952;2023-07-31T09:57:33;100351.66;;;18.52;79.27
28921;BME280;16035;53.594;9.952;2023-07-31T09:59:34;100347.63;;;18.49;79.22
28921;BME280;16035;53.594;9.952;2023-07-31T10:01:34;100353.78;;;18.46;79.28
28921;BME280;16035;53.594;9.952;2023-07-31T10:03:36;100353.94;;;18.41;79.06
28921;BME280;16035;53.594;9.952;2023-07-31T10:05:40;100347.78;;;18.35;78.95
28921;BME280;16035;53.594;9.952;2023-07-31T10:07:47;100346.47;;;18.33;79.04
28921;BME280;16035;53.594;9.952;2023-07-31T10:09:51;100346.94;;;18.35;79.32
28921;BME280;16035;53.594;9.952;2023-07-31T10:11:56;100343.09;;;18.36;79.52
28921;BME280;16035;53.594;9.952;2023-07-31T10:13:59;100347.44;;;18.37;79.13
28921;BME280;16035;53.594;9.952;2023-07-31T10:16:00;100344.38;;;18.30;78.83
28921;BME280;16035;53.594;9.952;2023-07-31T10:18:01;100350.69;;;18.22;78.69
28921;BME280;16035;53.594;9.952;2023-07-31T10:20:02;100342.91;;;18.15;79.27
28921;BME280;16035;53.594;9.952;2023-07-31T10:22:05;100349.19;;;18.15;78.87
28921;BME280;16035;53.594;9.952;2023-07-31T10:24:06;100341.59;;;18.12;79.08
28921;BME280;16035;53.594;9.952;2023-07-31T10:26:07;100343.06;;;18.18;79.06
28921;BME280;16035;53.594;9.952;2023-07-31T10:28:09;100340.34;;;18.27;79.40
28921;BME280;16035;53.594;9.952;2023-07-31T10:30:14;100334.34;;;18.34;79.33
28921;BME280;16035;53.594;9.952;2023-07-31T10:32:16;100328.66;;;18.39;79.09
28921;BME280;16035;53.594;9.952;2023-07-31T10:34:17;100328.53;;;18.35;78.74
28921;BME280;16035;53.594;9.952;2023-07-31T10:36:19;100333.06;;;18.31;78.95
28921;BME280;16035;53.594;9.952;2023-07-31T10:38:19;100320.41;;;18.30;79.10
28921;BME280;16035;53.594;9.952;2023-07-31T10:40:25;100329.16;;;18.32;78.82